createdAt,value
2023-02-11T00:00:39.131Z,25.43
2023-02-11T00:03:42.232Z,23.83
2023-02-11T00:06:44.903Z,26.90
2023-02-11T00:09:47.518Z,27.63
2023-02-11T00:12:50.120Z,32.97
2023-02-11T00:15:55.427Z,31.77
2023-02-11T00:18:59.926Z,26.65
2023-02-11T00:22:02.766Z,24.67
2023-02-11T00:25:06.053Z,21.13
2023-02-11T00:28:09.748Z,20.05
2023-02-11T00:31:15.316Z,18.43
2023-02-11T00:34:18.111Z,19.40
2023-02-11T00:37:20.841Z,18.45
2023-02-11T00:40:23.890Z,19.05
2023-02-11T00:43:26.747Z,18.35
2023-02-11T00:46:31.224Z,17.97
2023-02-11T00:49:34.312Z,17.20
2023-02-11T00:52:37.048Z,17.35
2023-02-11T00:55:39.704Z,16.75
2023-02-11T00:58:42.480Z,17.55
2023-02-11T01:01:47.788Z,15.07
2023-02-11T01:04:50.738Z,16.75
2023-02-11T01:07:53.382Z,16.50
2023-02-11T01:10:57.870Z,15.40
2023-02-11T01:14:00.567Z,15.05
2023-02-11T01:17:06.519Z,15.43
2023-02-11T01:20:14.645Z,15.68
2023-02-11T01:23:17.321Z,15.13
2023-02-11T01:26:19.998Z,14.35
2023-02-11T01:29:23.053Z,16.67
2023-02-11T01:32:27.068Z,15.00
2023-02-11T01:35:30.002Z,15.88
2023-02-11T01:38:33.541Z,17.48
2023-02-11T01:41:55.060Z,15.93
2023-02-11T01:44:58.012Z,15.07
2023-02-11T01:48:02.647Z,16.00
2023-02-11T01:51:09.160Z,16.85
2023-02-11T01:54:33.800Z,16.05
2023-02-11T01:57:39.966Z,16.75
2023-02-11T02:00:43.657Z,17.38
2023-02-11T02:03:52.357Z,17.07
2023-02-11T02:07:03.516Z,17.45
2023-02-11T02:10:11.462Z,14.05
2023-02-11T02:13:14.826Z,14.18
2023-02-11T02:16:21.365Z,14.65
2023-02-11T02:20:01.629Z,14.87
2023-02-11T02:23:27.032Z,13.40
2023-02-11T02:26:46.874Z,14.73
2023-02-11T02:30:36.190Z,13.82
2023-02-11T02:33:50.052Z,14.32
2023-02-11T02:37:01.071Z,14.83
2023-02-11T02:40:09.254Z,15.48
2023-02-11T02:43:13.850Z,15.35
2023-02-11T02:46:19.662Z,15.15
2023-02-11T02:49:23.812Z,16.30
2023-02-11T02:52:35.401Z,15.87
2023-02-11T02:55:48.519Z,16.25
2023-02-11T02:59:29.358Z,16.23
2023-02-11T03:02:37.203Z,16.85
2023-02-11T03:05:51.491Z,16.23
2023-02-11T03:08:59.682Z,16.03
2023-02-11T03:12:04.495Z,16.70
2023-02-11T03:15:08.353Z,16.88
2023-02-11T03:18:31.335Z,16.67
2023-02-11T03:21:37.884Z,16.17
2023-02-11T03:24:41.843Z,15.80
2023-02-11T03:27:55.797Z,17.08
2023-02-11T03:31:09.873Z,16.73
2023-02-11T03:34:16.195Z,15.27
2023-02-11T03:37:27.954Z,16.33
2023-02-11T03:40:35.325Z,16.07
2023-02-11T03:43:42.311Z,16.95
2023-02-11T03:46:49.096Z,17.95
2023-02-11T03:49:54.680Z,16.40
2023-02-11T03:53:01.413Z,15.73
2023-02-11T03:56:09.068Z,15.50
2023-02-11T03:59:11.757Z,15.82
2023-02-11T04:02:14.445Z,14.43
2023-02-11T04:05:17.079Z,12.75
2023-02-11T04:08:21.232Z,13.93
2023-02-11T04:11:23.947Z,13.87
2023-02-11T04:14:26.630Z,14.80
2023-02-11T04:17:29.572Z,16.85
2023-02-11T04:20:32.234Z,17.67
2023-02-11T04:23:36.346Z,17.40
2023-02-11T04:26:38.960Z,17.07
2023-02-11T04:29:41.731Z,17.60
2023-02-11T04:32:44.426Z,14.85
2023-02-11T04:35:47.223Z,14.73
2023-02-11T04:38:51.432Z,14.35
2023-02-11T04:41:54.037Z,12.87
2023-02-11T04:44:56.680Z,14.60
2023-02-11T04:47:59.411Z,13.75
2023-02-11T04:51:02.705Z,14.32
2023-02-11T04:54:06.916Z,15.05
2023-02-11T04:57:09.674Z,16.00
2023-02-11T05:00:13.465Z,24.48
2023-02-11T05:03:17.483Z,24.63
2023-02-11T05:06:20.144Z,21.20
2023-02-11T05:09:24.556Z,18.30
2023-02-11T05:12:27.231Z,18.77
2023-02-11T05:15:29.948Z,18.35
2023-02-11T05:18:32.524Z,24.77
2023-02-11T05:21:35.425Z,21.70
2023-02-11T05:24:39.751Z,22.20
2023-02-11T05:27:42.477Z,51.83
2023-02-11T05:30:45.146Z,29.63
2023-02-11T05:33:47.862Z,24.58
2023-02-11T05:36:50.513Z,19.55
2023-02-11T05:39:54.825Z,17.80
2023-02-11T05:42:57.551Z,16.03
2023-02-11T05:46:00.282Z,14.75
2023-02-11T05:49:03.344Z,16.58
2023-02-11T05:52:06.071Z,15.57
2023-02-11T05:55:10.223Z,12.30
2023-02-11T05:58:13.694Z,13.93
2023-02-11T06:01:16.720Z,15.48
2023-02-11T06:04:19.535Z,15.52
2023-02-11T06:07:22.355Z,16.27
2023-02-11T06:10:26.788Z,16.27
2023-02-11T06:13:29.425Z,16.43
2023-02-11T06:16:32.313Z,20.02
2023-02-11T06:19:35.094Z,26.75
2023-02-11T06:22:38.155Z,33.47
2023-02-11T06:25:43.602Z,33.13
2023-02-11T06:28:46.803Z,26.63
2023-02-11T06:31:49.432Z,22.90
2023-02-11T06:34:52.065Z,21.15
2023-02-11T06:37:54.834Z,23.75
2023-02-11T06:40:58.877Z,22.88
2023-02-11T06:44:01.555Z,22.50
2023-02-11T06:47:04.341Z,32.08
2023-02-11T06:50:08.899Z,30.58
2023-02-11T06:53:11.562Z,25.80
2023-02-11T06:56:17.393Z,25.10
2023-02-11T06:59:20.818Z,22.13
2023-02-11T07:02:23.470Z,20.73
2023-02-11T07:05:26.369Z,19.02
2023-02-11T07:08:29.378Z,17.67
2023-02-11T07:11:33.940Z,18.92
2023-02-11T07:14:36.620Z,16.07
2023-02-11T07:17:39.258Z,18.80
2023-02-11T07:20:42.112Z,19.55
2023-02-11T07:23:45.973Z,17.73
2023-02-11T07:26:50.457Z,19.60
2023-02-11T07:29:53.169Z,18.23
2023-02-11T07:32:56.555Z,18.95
2023-02-11T07:36:00.448Z,19.00
2023-02-11T07:39:04.315Z,20.10
2023-02-11T07:42:08.589Z,21.30
2023-02-11T07:45:12.681Z,20.20
2023-02-11T07:48:15.340Z,23.05
2023-02-11T07:51:20.466Z,38.70
2023-02-11T07:54:23.354Z,17.55
2023-02-11T07:57:27.498Z,18.73
2023-02-11T08:00:30.284Z,20.07
2023-02-11T08:03:33.782Z,20.45
2023-02-11T08:06:41.431Z,16.02
2023-02-11T08:09:44.947Z,19.40
2023-02-11T08:12:49.467Z,17.33
2023-02-11T08:15:52.351Z,18.40
2023-02-11T08:18:57.698Z,18.73
2023-02-11T08:22:01.439Z,17.75
2023-02-11T08:25:04.496Z,17.83
2023-02-11T08:28:09.287Z,18.60
2023-02-11T08:31:14.342Z,18.67
2023-02-11T08:34:20.276Z,20.17
2023-02-11T08:37:23.102Z,19.95
2023-02-11T08:40:25.970Z,21.08
2023-02-11T08:43:30.311Z,21.23
2023-02-11T08:46:33.119Z,23.47
2023-02-11T08:49:36.509Z,22.88
2023-02-11T08:52:39.366Z,18.15
2023-02-11T08:55:48.847Z,19.88
2023-02-11T08:58:53.659Z,20.63
2023-02-11T09:01:57.226Z,19.43
2023-02-11T09:04:59.949Z,20.40
2023-02-11T09:08:02.641Z,20.35
2023-02-11T09:11:05.931Z,19.88
2023-02-11T09:14:16.712Z,20.08
2023-02-11T09:17:19.530Z,21.60
2023-02-11T09:20:22.296Z,21.70
2023-02-11T09:23:25.273Z,19.70
2023-02-11T09:26:30.578Z,20.98
2023-02-11T09:29:35.383Z,19.65
2023-02-11T09:32:38.074Z,19.00
2023-02-11T09:35:40.768Z,21.23
2023-02-11T09:38:44.159Z,19.88
2023-02-11T09:42:05.738Z,19.90
2023-02-11T09:45:17.484Z,19.77
2023-02-11T09:48:22.606Z,19.63
2023-02-11T09:51:36.468Z,20.67
2023-02-11T09:54:52.724Z,21.30
2023-02-11T09:57:56.237Z,20.73
2023-02-11T10:01:08.552Z,20.63
2023-02-11T10:04:17.693Z,21.20
2023-02-11T10:07:27.492Z,21.45
2023-02-11T10:10:43.935Z,18.60
2023-02-11T10:13:55.414Z,19.85
2023-02-11T10:17:12.787Z,18.42
2023-02-11T10:20:26.291Z,18.97
2023-02-11T10:23:34.974Z,17.85
2023-02-11T10:26:39.893Z,15.90
2023-02-11T10:29:48.215Z,17.15
2023-02-11T10:32:57.183Z,18.13
2023-02-11T10:36:00.191Z,19.90
2023-02-11T10:39:11.663Z,18.63
2023-02-11T10:42:15.883Z,19.80
2023-02-11T10:45:25.246Z,20.63
2023-02-11T10:48:44.420Z,20.70
2023-02-11T10:51:47.347Z,16.70
2023-02-11T10:55:02.236Z,20.25
2023-02-11T10:58:05.053Z,19.17
2023-02-11T11:01:23.416Z,24.05
2023-02-11T11:04:41.075Z,22.70
2023-02-11T11:07:54.299Z,18.90
2023-02-11T11:11:04.075Z,18.88
2023-02-11T11:14:19.570Z,19.35
2023-02-11T11:17:22.547Z,19.92
2023-02-11T11:20:29.407Z,18.73
2023-02-11T11:23:34.712Z,21.57
2023-02-11T11:26:42.505Z,20.73
2023-02-11T11:29:49.285Z,19.33
2023-02-11T11:32:52.378Z,18.38
2023-02-11T11:36:00.952Z,21.95
2023-02-11T11:39:18.730Z,26.33
2023-02-11T11:42:26.181Z,21.63
2023-02-11T11:45:28.865Z,17.50
2023-02-11T11:48:35.183Z,17.65
2023-02-11T11:51:42.134Z,18.13
2023-02-11T11:54:53.604Z,16.20
2023-02-11T11:57:56.321Z,12.60
2023-02-11T12:01:15.115Z,16.42
2023-02-11T12:04:36.833Z,14.40
2023-02-11T12:07:52.698Z,15.73
2023-02-11T12:11:09.130Z,15.77
2023-02-11T12:14:20.546Z,12.02
2023-02-11T12:17:36.694Z,16.20
2023-02-11T12:20:53.865Z,17.17
2023-02-11T12:24:10.329Z,16.45
2023-02-11T12:27:18.414Z,12.97
2023-02-11T12:30:49.160Z,14.30
2023-02-11T12:34:14.245Z,12.63
2023-02-11T12:37:33.224Z,13.38
2023-02-11T12:40:46.831Z,11.40
2023-02-11T12:43:50.555Z,13.53
2023-02-11T12:47:03.071Z,15.15
2023-02-11T12:50:17.406Z,14.45
2023-02-11T12:53:39.517Z,12.75
2023-02-11T12:56:48.668Z,13.43
2023-02-11T12:59:58.999Z,18.23
2023-02-11T13:03:11.074Z,16.33
2023-02-11T13:06:17.835Z,14.80
2023-02-11T13:09:25.343Z,14.98
2023-02-11T13:12:51.082Z,15.80
2023-02-11T13:15:58.673Z,15.97
2023-02-11T13:19:14.028Z,15.57
2023-02-11T13:22:19.781Z,15.75
2023-02-11T13:25:31.529Z,16.73
2023-02-11T13:28:45.216Z,16.05
2023-02-11T13:31:54.697Z,14.93
2023-02-11T13:34:58.431Z,14.73
2023-02-11T13:38:03.393Z,18.13
2023-02-11T13:41:18.367Z,14.93
2023-02-11T13:44:26.624Z,14.48
2023-02-11T13:47:33.084Z,15.27
2023-02-11T13:50:39.764Z,16.55
2023-02-11T13:53:47.388Z,15.00
2023-02-11T13:57:26.324Z,16.88
2023-02-11T14:00:50.378Z,15.98
2023-02-11T14:04:39.420Z,15.63
2023-02-11T14:08:32.331Z,17.02
2023-02-11T14:11:49.066Z,17.00
2023-02-11T14:15:13.924Z,22.55
2023-02-11T14:18:57.318Z,22.15
2023-02-11T14:22:03.179Z,17.13
2023-02-11T14:25:18.340Z,17.40
2023-02-11T14:28:44.802Z,16.85
2023-02-11T14:31:57.652Z,16.10
2023-02-11T14:35:10.162Z,15.77
2023-02-11T14:38:23.119Z,16.13
2023-02-11T14:41:29.474Z,18.23
2023-02-11T14:44:34.230Z,16.05
2023-02-11T14:47:44.731Z,18.10
2023-02-11T14:50:52.994Z,18.65
2023-02-11T14:54:01.036Z,20.87
2023-02-11T14:57:09.309Z,21.15
2023-02-11T15:00:18.180Z,18.42
2023-02-11T15:03:32.863Z,18.70
2023-02-11T15:06:40.018Z,18.10
2023-02-11T15:09:46.468Z,15.50
2023-02-11T15:12:50.000Z,18.95
2023-02-11T15:15:57.856Z,23.83
2023-02-11T15:19:05.122Z,23.55
2023-02-11T15:22:20.147Z,18.38
2023-02-11T15:25:24.053Z,23.37
2023-02-11T15:28:29.127Z,20.48
2023-02-11T15:31:35.089Z,21.63
2023-02-11T15:34:39.238Z,18.20
2023-02-11T15:37:44.338Z,20.23
2023-02-11T15:40:56.703Z,20.83
2023-02-11T15:43:59.581Z,22.27
2023-02-11T15:47:02.439Z,20.60
2023-02-11T15:50:06.566Z,27.50
2023-02-11T15:53:25.424Z,33.20
2023-02-11T15:56:32.908Z,45.40
2023-02-11T15:59:38.389Z,36.70
2023-02-11T16:02:45.226Z,33.13
2023-02-11T16:05:49.494Z,26.15
2023-02-11T16:09:02.897Z,20.02
2023-02-11T16:12:23.456Z,30.27
2023-02-11T16:15:41.444Z,32.15
2023-02-11T16:19:02.110Z,28.70
2023-02-11T16:22:10.528Z,25.83
2023-02-11T16:25:20.206Z,26.58
2023-02-11T16:28:23.384Z,33.40
2023-02-11T16:31:33.206Z,47.58
2023-02-11T16:34:36.717Z,42.40
2023-02-11T16:37:39.571Z,42.33
2023-02-11T16:40:46.079Z,40.47
2023-02-11T16:43:49.062Z,32.77
2023-02-11T16:46:53.096Z,33.35
2023-02-11T16:49:57.504Z,28.20
2023-02-11T16:53:02.170Z,30.13
2023-02-11T16:56:06.867Z,34.03
2023-02-11T16:59:10.115Z,30.50
2023-02-11T17:02:15.720Z,32.47
2023-02-11T17:05:22.904Z,34.95
2023-02-11T17:08:25.837Z,25.92
2023-02-11T17:11:30.163Z,24.73
2023-02-11T17:14:33.236Z,21.47
2023-02-11T17:17:36.086Z,20.90
2023-02-11T17:20:39.019Z,19.45
2023-02-11T17:23:43.292Z,29.58
2023-02-11T17:26:48.046Z,17.30
2023-02-11T17:29:50.956Z,19.00
2023-02-11T17:32:53.867Z,18.85
2023-02-11T17:35:57.742Z,28.52
2023-02-11T17:39:01.192Z,55.55
2023-02-11T17:42:06.444Z,24.85
2023-02-11T17:45:10.133Z,24.17
2023-02-11T17:48:13.057Z,22.70
2023-02-11T17:51:23.898Z,22.38
2023-02-11T17:54:26.907Z,18.95
2023-02-11T17:57:31.287Z,17.42
2023-02-11T18:00:34.284Z,18.57
2023-02-11T18:03:37.558Z,22.77
2023-02-11T18:06:41.449Z,22.90
2023-02-11T18:09:45.149Z,23.83
2023-02-11T18:12:49.411Z,24.38
2023-02-11T18:15:52.938Z,25.10
2023-02-11T18:18:56.937Z,29.40
2023-02-11T18:22:01.187Z,26.13
2023-02-11T18:25:05.061Z,28.92
2023-02-11T18:28:09.417Z,27.75
2023-02-11T18:31:12.574Z,32.70
2023-02-11T18:34:17.008Z,29.73
2023-02-11T18:37:19.996Z,28.10
2023-02-11T18:40:22.912Z,20.42
2023-02-11T18:43:31.583Z,17.65
2023-02-11T18:46:34.404Z,19.47
2023-02-11T18:49:37.477Z,17.83
2023-02-11T18:52:40.467Z,16.33
2023-02-11T18:55:45.489Z,18.52
2023-02-11T18:58:51.390Z,20.00
2023-02-11T19:01:55.602Z,18.07
2023-02-11T19:04:58.616Z,18.95
2023-02-11T19:08:01.530Z,21.63
2023-02-11T19:11:05.060Z,21.83
2023-02-11T19:14:10.418Z,20.95
2023-02-11T19:17:13.496Z,21.07
2023-02-11T19:20:16.854Z,24.60
2023-02-11T19:23:19.811Z,23.00
2023-02-11T19:26:24.205Z,22.10
2023-02-11T19:29:29.372Z,21.08
2023-02-11T19:32:32.517Z,24.17
2023-02-11T19:35:35.696Z,26.70
2023-02-11T19:38:39.046Z,27.23
2023-02-11T19:41:43.278Z,26.70
2023-02-11T19:44:47.720Z,22.00
2023-02-11T19:47:55.478Z,22.30
2023-02-11T19:50:58.839Z,19.73
2023-02-11T19:54:01.994Z,21.33
2023-02-11T19:57:04.677Z,22.02
2023-02-11T20:00:11.184Z,23.20
2023-02-11T20:03:17.109Z,21.60
2023-02-11T20:06:23.508Z,22.08
2023-02-11T20:09:29.006Z,21.55
2023-02-11T20:12:31.926Z,23.55
2023-02-11T20:15:36.750Z,22.08
2023-02-11T20:18:40.382Z,23.07
2023-02-11T20:21:46.606Z,22.50
2023-02-11T20:24:49.881Z,23.70
2023-02-11T20:27:52.947Z,23.95
2023-02-11T20:30:58.032Z,24.42
2023-02-11T20:34:01.833Z,27.07
2023-02-11T20:37:06.029Z,22.08
2023-02-11T20:40:09.653Z,21.95
2023-02-11T20:43:21.028Z,21.00
2023-02-11T20:46:27.792Z,22.20
2023-02-11T20:49:30.805Z,18.47
2023-02-11T20:52:34.321Z,18.85
2023-02-11T20:55:38.525Z,21.13
2023-02-11T20:58:41.856Z,19.52
2023-02-11T21:01:48.331Z,19.73
2023-02-11T21:04:51.235Z,24.57
2023-02-11T21:07:54.275Z,23.60
2023-02-11T21:10:57.330Z,26.67
2023-02-11T21:14:02.403Z,24.92
2023-02-11T21:17:07.536Z,23.40
2023-02-11T21:20:10.943Z,23.53
2023-02-11T21:23:13.875Z,21.48
2023-02-11T21:26:17.215Z,18.52
2023-02-11T21:29:20.150Z,18.60
2023-02-11T21:32:24.467Z,17.98
2023-02-11T21:35:27.419Z,18.10
2023-02-11T21:38:31.113Z,17.40
2023-02-11T21:41:34.868Z,17.33
2023-02-11T21:44:38.093Z,16.58
2023-02-11T21:47:42.102Z,15.98
2023-02-11T21:50:46.687Z,16.90
2023-02-11T21:53:53.838Z,17.13
2023-02-11T21:56:57.364Z,18.30
2023-02-11T22:00:00.282Z,18.25
2023-02-11T22:03:04.540Z,18.90
2023-02-11T22:06:09.557Z,19.90
2023-02-11T22:09:12.472Z,21.10
2023-02-11T22:12:15.197Z,20.63
2023-02-11T22:15:18.133Z,21.33
2023-02-11T22:18:22.529Z,21.58
2023-02-11T22:21:25.397Z,21.17
2023-02-11T22:24:29.649Z,22.50
2023-02-11T22:27:32.262Z,21.00
2023-02-11T22:30:35.254Z,21.08
2023-02-11T22:33:39.662Z,18.05
2023-02-11T22:36:42.379Z,17.63
2023-02-11T22:39:45.159Z,17.50
2023-02-11T22:42:47.975Z,17.50
2023-02-11T22:45:52.190Z,18.42
2023-02-11T22:48:56.761Z,18.25
2023-02-11T22:52:00.044Z,17.70
2023-02-11T22:55:02.701Z,17.90
2023-02-11T22:58:05.509Z,16.92
2023-02-11T23:01:08.273Z,17.08
2023-02-11T23:04:14.565Z,17.20
2023-02-11T23:07:17.404Z,18.53
2023-02-11T23:10:20.309Z,18.23
2023-02-11T23:13:23.121Z,18.75
2023-02-11T23:16:28.121Z,19.60
2023-02-11T23:19:32.359Z,18.55
2023-02-11T23:22:35.382Z,18.43
2023-02-11T23:25:42.680Z,19.80
2023-02-11T23:28:46.120Z,20.92
2023-02-11T23:31:49.845Z,22.08
2023-02-11T23:34:54.925Z,21.00
2023-02-11T23:37:57.555Z,22.47
2023-02-11T23:41:00.209Z,20.63
2023-02-11T23:44:04.183Z,18.40
2023-02-11T23:47:07.073Z,17.65
2023-02-11T23:50:12.142Z,19.15
2023-02-11T23:53:15.230Z,17.57
2023-02-11T23:56:20.489Z,16.92
2023-02-11T23:59:23.247Z,17.17
